createdAt,value
2018-12-15T00:00:58.723Z,27.10
2018-12-15T00:01:58.715Z,28.00
2018-12-15T00:02:58.698Z,27.90
2018-12-15T00:03:58.734Z,26.00
2018-12-15T00:04:58.713Z,24.90
2018-12-15T00:05:58.667Z,27.20
2018-12-15T00:06:58.684Z,26.10
2018-12-15T00:07:58.693Z,27.00
2018-12-15T00:08:58.635Z,25.80
2018-12-15T00:09:58.625Z,28.10
2018-12-15T00:10:58.701Z,24.10
2018-12-15T00:11:58.600Z,26.60
2018-12-15T00:12:58.594Z,26.90
2018-12-15T00:13:58.589Z,26.20
2018-12-15T00:14:58.570Z,26.00
2018-12-15T00:15:58.590Z,24.90
2018-12-15T00:16:58.580Z,26.30
2018-12-15T00:17:58.564Z,23.80
2018-12-15T00:18:58.524Z,23.20
2018-12-15T00:19:58.531Z,24.50
2018-12-15T00:20:58.501Z,26.70
2018-12-15T00:21:58.522Z,26.40
2018-12-15T00:22:58.495Z,26.90
2018-12-15T00:23:58.472Z,24.40
2018-12-15T00:24:58.460Z,27.70
2018-12-15T00:25:58.470Z,25.60
2018-12-15T00:26:58.825Z,26.50
2018-12-15T00:27:58.426Z,25.20
2018-12-15T00:28:58.415Z,24.10
2018-12-15T00:29:58.420Z,25.90
2018-12-15T00:30:58.395Z,26.90
2018-12-15T00:31:58.424Z,25.50
2018-12-15T00:32:58.371Z,27.00
2018-12-15T00:33:58.361Z,28.00
2018-12-15T00:34:58.351Z,26.10
2018-12-15T00:35:58.339Z,28.30
2018-12-15T00:36:58.415Z,24.40
2018-12-15T00:37:58.319Z,24.80
2018-12-15T00:38:58.321Z,28.30
2018-12-15T00:39:58.296Z,27.80
2018-12-15T00:40:58.287Z,26.90
2018-12-15T00:41:58.272Z,27.30
2018-12-15T00:42:58.271Z,28.40
2018-12-15T00:43:58.275Z,28.10
2018-12-15T00:44:58.253Z,27.00
2018-12-15T00:45:58.228Z,26.70
2018-12-15T00:46:58.220Z,29.10
2018-12-15T00:47:58.249Z,29.70
2018-12-15T00:48:58.210Z,29.40
2018-12-15T00:49:58.229Z,26.10
2018-12-15T00:50:58.184Z,29.70
2018-12-15T00:51:58.166Z,29.90
2018-12-15T00:52:58.177Z,29.50
2018-12-15T00:53:58.149Z,31.40
2018-12-15T00:55:07.711Z,30.00
2018-12-15T00:55:58.116Z,27.90
2018-12-15T00:56:58.109Z,31.10
2018-12-15T00:57:58.124Z,27.00
2018-12-15T00:58:58.096Z,31.70
2018-12-15T00:59:58.114Z,27.40
2018-12-15T01:00:58.066Z,32.40
2018-12-15T01:01:58.058Z,28.10
2018-12-15T01:02:58.060Z,27.90
2018-12-15T01:03:58.062Z,28.50
2018-12-15T01:04:58.023Z,28.90
2018-12-15T01:05:58.014Z,29.70
2018-12-15T01:06:58.026Z,29.90
2018-12-15T01:07:58.034Z,27.30
2018-12-15T01:08:58.003Z,31.70
2018-12-15T01:09:57.966Z,30.00
2018-12-15T01:10:57.980Z,28.00
2018-12-15T01:11:57.954Z,30.00
2018-12-15T01:12:57.940Z,32.60
2018-12-15T01:13:57.927Z,27.80
2018-12-15T01:14:57.913Z,29.50
2018-12-15T01:15:57.935Z,28.40
2018-12-15T01:16:57.931Z,32.40
2018-12-15T01:17:57.885Z,31.30
2018-12-15T01:18:57.873Z,32.30
2018-12-15T01:19:57.862Z,34.50
2018-12-15T01:20:57.866Z,32.00
2018-12-15T01:21:57.864Z,29.80
2018-12-15T01:22:57.832Z,30.20
2018-12-15T01:23:57.839Z,29.60
2018-12-15T01:24:57.808Z,32.20
2018-12-15T01:25:57.797Z,31.30
2018-12-15T01:26:57.809Z,33.00
2018-12-15T01:27:57.776Z,33.00
2018-12-15T01:28:57.762Z,29.90
2018-12-15T01:29:57.757Z,31.10
2018-12-15T01:30:57.767Z,32.60
2018-12-15T01:31:57.757Z,32.00
2018-12-15T01:32:57.725Z,31.20
2018-12-15T01:33:57.754Z,30.10
2018-12-15T01:34:57.699Z,33.30
2018-12-15T01:35:57.684Z,29.80
2018-12-15T01:36:57.710Z,31.20
2018-12-15T01:37:57.669Z,31.70
2018-12-15T01:38:57.678Z,33.20
2018-12-15T01:39:57.644Z,32.50
2018-12-15T01:40:57.665Z,30.60
2018-12-15T01:41:57.623Z,32.30
2018-12-15T01:42:57.663Z,33.30
2018-12-15T01:43:57.601Z,29.00
2018-12-15T01:44:57.589Z,31.50
2018-12-15T01:45:57.605Z,32.40
2018-12-15T01:46:57.566Z,28.70
2018-12-15T01:47:57.563Z,29.00
2018-12-15T01:48:57.544Z,30.00
2018-12-15T01:49:57.537Z,29.20
2018-12-15T01:50:57.553Z,28.30
2018-12-15T01:51:57.515Z,30.50
2018-12-15T01:52:57.525Z,29.10
2018-12-15T01:53:57.501Z,30.30
2018-12-15T01:54:57.477Z,29.60
2018-12-15T01:55:57.467Z,30.30
2018-12-15T01:56:57.457Z,32.10
2018-12-15T01:57:57.493Z,30.00
2018-12-15T01:58:57.438Z,27.20
2018-12-15T01:59:57.430Z,28.20
2018-12-15T02:00:57.412Z,27.40
2018-12-15T02:01:57.403Z,31.10
2018-12-15T02:02:57.417Z,28.40
2018-12-15T02:03:57.412Z,29.50
2018-12-15T02:04:57.390Z,30.00
2018-12-15T02:05:57.386Z,30.30
2018-12-15T02:06:57.361Z,29.70
2018-12-15T02:07:57.340Z,24.60
2018-12-15T02:08:57.321Z,28.00
2018-12-15T02:09:57.347Z,25.30
2018-12-15T02:10:57.321Z,24.10
2018-12-15T02:11:57.346Z,25.50
2018-12-15T02:12:57.286Z,25.20
2018-12-15T02:13:57.269Z,26.40
2018-12-15T02:14:57.285Z,23.60
2018-12-15T02:15:57.256Z,22.70
2018-12-15T02:16:57.256Z,22.20
2018-12-15T02:17:57.227Z,24.40
2018-12-15T02:18:57.222Z,22.70
2018-12-15T02:19:57.204Z,25.30
2018-12-15T02:20:57.238Z,23.10
2018-12-15T02:21:57.184Z,26.40
2018-12-15T02:22:57.193Z,23.00
2018-12-15T02:23:57.176Z,25.90
2018-12-15T02:24:57.149Z,22.70
2018-12-15T02:25:57.141Z,25.20
2018-12-15T02:26:57.175Z,24.30
2018-12-15T02:27:57.127Z,24.50
2018-12-15T02:28:57.104Z,22.30
2018-12-15T02:29:57.146Z,23.50
2018-12-15T02:30:57.085Z,22.80
2018-12-15T02:31:57.076Z,23.60
2018-12-15T02:32:57.064Z,25.80
2018-12-15T02:33:57.057Z,27.20
2018-12-15T02:34:57.063Z,23.70
2018-12-15T02:35:57.053Z,24.10
2018-12-15T02:36:57.017Z,23.60
2018-12-15T02:37:57.047Z,23.40
2018-12-15T02:38:57.042Z,21.30
2018-12-15T02:39:57.004Z,25.00
2018-12-15T02:40:56.976Z,22.60
2018-12-15T02:41:56.969Z,22.90
2018-12-15T02:42:56.969Z,21.50
2018-12-15T02:43:56.986Z,24.50
2018-12-15T02:44:56.944Z,22.20
2018-12-15T02:45:56.945Z,23.30
2018-12-15T02:46:56.928Z,22.60
2018-12-15T02:47:56.916Z,23.70
2018-12-15T02:48:56.908Z,24.60
2018-12-15T02:49:56.888Z,26.30
2018-12-15T02:50:56.920Z,24.70
2018-12-15T02:51:56.854Z,25.10
2018-12-15T02:52:56.846Z,23.60
2018-12-15T02:53:56.834Z,23.50
2018-12-15T02:54:57.214Z,22.50
2018-12-15T02:55:56.855Z,21.80
2018-12-15T02:56:56.803Z,22.40
2018-12-15T02:57:56.803Z,24.20
2018-12-15T02:58:56.780Z,24.00
2018-12-15T02:59:56.777Z,25.10
2018-12-15T03:00:56.777Z,24.70
2018-12-15T03:01:56.761Z,25.70
2018-12-15T03:02:56.741Z,24.60
2018-12-15T03:03:56.759Z,22.90
2018-12-15T03:04:56.722Z,23.90
2018-12-15T03:05:56.702Z,26.10
2018-12-15T03:06:56.715Z,25.50
2018-12-15T03:07:56.681Z,23.20
2018-12-15T03:08:56.695Z,24.50
2018-12-15T03:09:56.684Z,26.50
2018-12-15T03:10:56.648Z,25.10
2018-12-15T03:11:56.643Z,24.90
2018-12-15T03:12:56.624Z,25.10
2018-12-15T03:13:56.642Z,23.80
2018-12-15T03:14:56.629Z,23.60
2018-12-15T03:15:56.596Z,24.20
2018-12-15T03:16:56.593Z,24.00
2018-12-15T03:17:56.579Z,23.90
2018-12-15T03:18:56.586Z,25.20
2018-12-15T03:19:56.557Z,25.90
2018-12-15T03:20:56.563Z,23.80
2018-12-15T03:21:56.541Z,24.00
2018-12-15T03:22:56.535Z,19.50
2018-12-15T03:23:56.536Z,24.70
2018-12-15T03:24:56.493Z,23.70
2018-12-15T03:25:56.515Z,25.80
2018-12-15T03:26:56.473Z,26.40
2018-12-15T03:27:56.466Z,24.30
2018-12-15T03:28:56.463Z,26.90
2018-12-15T03:29:56.508Z,24.20
2018-12-15T03:30:56.447Z,25.40
2018-12-15T03:31:56.449Z,24.40
2018-12-15T03:32:56.410Z,24.70
2018-12-15T03:33:56.415Z,25.80
2018-12-15T03:34:56.385Z,25.70
2018-12-15T03:35:56.389Z,23.80
2018-12-15T03:36:56.362Z,24.10
2018-12-15T03:37:56.362Z,25.60
2018-12-15T03:38:56.375Z,23.20
2018-12-15T03:39:56.363Z,25.60
2018-12-15T03:40:56.349Z,22.50
2018-12-15T03:41:56.309Z,24.40
2018-12-15T03:42:56.300Z,24.40
2018-12-15T03:43:56.303Z,25.30
2018-12-15T03:44:56.304Z,23.10
2018-12-15T03:45:56.265Z,25.50
2018-12-15T03:46:56.254Z,23.30
2018-12-15T03:47:56.512Z,24.80
2018-12-15T03:48:56.246Z,28.10
2018-12-15T03:49:56.283Z,25.70
2018-12-15T03:50:56.211Z,24.50
2018-12-15T03:51:56.228Z,23.50
2018-12-15T03:52:56.202Z,25.50
2018-12-15T03:53:56.177Z,23.20
2018-12-15T03:54:56.553Z,23.00
2018-12-15T03:55:56.166Z,23.50
2018-12-15T03:56:56.147Z,25.90
2018-12-15T03:57:56.153Z,22.40
2018-12-15T03:58:56.121Z,26.50
2018-12-15T03:59:56.150Z,22.40
2018-12-15T04:00:56.102Z,25.50
2018-12-15T04:01:56.114Z,23.60
2018-12-15T04:02:56.096Z,26.10
2018-12-15T04:03:56.086Z,26.30
2018-12-15T04:04:56.083Z,24.30
2018-12-15T04:06:04.334Z,23.20
2018-12-15T04:06:56.057Z,25.80
2018-12-15T04:07:56.041Z,25.10
2018-12-15T04:08:56.045Z,25.50
2018-12-15T04:09:56.042Z,24.50
2018-12-15T04:10:56.037Z,23.30
2018-12-15T04:11:56.001Z,25.00
2018-12-15T04:12:56.080Z,24.30
2018-12-15T04:13:55.965Z,24.90
2018-12-15T04:14:55.954Z,25.30
2018-12-15T04:15:55.974Z,23.90
2018-12-15T04:16:55.959Z,23.80
2018-12-15T04:18:03.475Z,23.40
2018-12-15T04:18:56.938Z,22.60
2018-12-15T04:19:55.942Z,24.60
2018-12-15T04:20:55.941Z,23.40
2018-12-15T04:21:55.889Z,24.30
2018-12-15T04:22:56.794Z,22.70
2018-12-15T04:23:55.926Z,22.10
2018-12-15T04:24:55.871Z,23.40
2018-12-15T04:25:55.879Z,22.90
2018-12-15T04:26:55.898Z,22.50
2018-12-15T04:27:55.811Z,24.70
2018-12-15T04:28:55.795Z,27.10
2018-12-15T04:29:55.837Z,25.90
2018-12-15T04:30:55.790Z,23.10
2018-12-15T04:31:55.768Z,25.80
2018-12-15T04:32:55.788Z,26.00
2018-12-15T04:33:55.760Z,22.50
2018-12-15T04:34:55.730Z,26.50
2018-12-15T04:35:55.727Z,21.30
2018-12-15T04:36:55.732Z,23.00
2018-12-15T04:37:55.746Z,26.80
2018-12-15T04:38:55.696Z,26.30
2018-12-15T04:39:55.681Z,25.40
2018-12-15T04:40:55.672Z,24.90
2018-12-15T04:41:55.664Z,24.00
2018-12-15T04:42:55.845Z,23.40
2018-12-15T04:43:55.635Z,23.50
2018-12-15T04:44:55.642Z,22.50
2018-12-15T04:45:55.614Z,23.80
2018-12-15T04:46:55.618Z,24.10
2018-12-15T04:47:55.646Z,24.90
2018-12-15T04:48:55.618Z,24.60
2018-12-15T04:49:55.589Z,24.60
2018-12-15T04:50:55.556Z,23.50
2018-12-15T04:51:55.543Z,21.80
2018-12-15T04:52:55.542Z,25.20
2018-12-15T04:53:55.548Z,25.40
2018-12-15T04:54:55.516Z,25.40
2018-12-15T04:55:56.294Z,25.50
2018-12-15T04:56:55.502Z,23.30
2018-12-15T04:57:55.510Z,24.30
2018-12-15T04:58:55.544Z,24.00
2018-12-15T04:59:55.462Z,27.20
2018-12-15T05:00:55.492Z,24.10
2018-12-15T05:01:55.492Z,23.40
2018-12-15T05:02:55.430Z,23.40
2018-12-15T05:03:55.415Z,26.00
2018-12-15T05:04:55.481Z,25.00
2018-12-15T05:05:55.435Z,24.30
2018-12-15T05:06:55.484Z,24.10
2018-12-15T05:07:55.504Z,23.30
2018-12-15T05:08:55.400Z,22.00
2018-12-15T05:09:55.402Z,22.20
2018-12-15T05:10:55.408Z,21.80
2018-12-15T05:11:55.354Z,22.20
2018-12-15T05:12:55.330Z,22.20
2018-12-15T05:13:55.325Z,21.10
2018-12-15T05:14:55.430Z,24.90
2018-12-15T05:15:55.315Z,21.50
2018-12-15T05:16:55.280Z,22.30
2018-12-15T05:17:55.262Z,22.20
2018-12-15T05:18:55.248Z,23.10
2018-12-15T05:19:55.239Z,19.20
2018-12-15T05:20:55.268Z,20.50
2018-12-15T05:21:55.224Z,19.80
2018-12-15T05:22:55.211Z,21.00
2018-12-15T05:23:55.198Z,19.80
2018-12-15T05:24:55.203Z,18.60
2018-12-15T05:25:55.206Z,19.10
2018-12-15T05:26:55.171Z,18.80
2018-12-15T05:27:55.157Z,20.90
2018-12-15T05:28:55.144Z,17.40
2018-12-15T05:29:55.176Z,20.00
2018-12-15T05:30:55.199Z,22.10
2018-12-15T05:31:55.112Z,20.60
2018-12-15T05:32:55.138Z,22.90
2018-12-15T05:33:55.086Z,18.40
2018-12-15T05:34:55.102Z,19.50
2018-12-15T05:35:55.097Z,22.70
2018-12-15T05:36:55.078Z,21.30
2018-12-15T05:37:55.114Z,21.20
2018-12-15T05:38:55.028Z,19.30
2018-12-15T05:39:55.098Z,19.60
2018-12-15T05:40:55.064Z,19.50
2018-12-15T05:41:55.004Z,23.40
2018-12-15T05:42:54.990Z,22.10
2018-12-15T05:43:54.992Z,21.90
2018-12-15T05:44:55.018Z,23.50
2018-12-15T05:45:55.007Z,19.90
2018-12-15T05:46:54.963Z,21.00
2018-12-15T05:47:54.944Z,22.50
2018-12-15T05:49:03.509Z,19.80
2018-12-15T05:49:54.929Z,18.60
2018-12-15T05:50:54.895Z,18.50
2018-12-15T05:51:54.886Z,18.90
2018-12-15T05:52:54.940Z,18.40
2018-12-15T05:53:54.864Z,21.60
2018-12-15T05:54:54.874Z,20.80
2018-12-15T05:55:54.842Z,19.00
2018-12-15T05:56:54.836Z,20.90
2018-12-15T05:57:54.823Z,19.30
2018-12-15T05:58:54.839Z,18.90
2018-12-15T05:59:54.834Z,19.60
2018-12-15T06:00:54.793Z,18.40
2018-12-15T06:01:54.781Z,19.50
2018-12-15T06:02:54.820Z,20.90
2018-12-15T06:03:54.771Z,19.10
2018-12-15T06:04:54.752Z,17.50
2018-12-15T06:05:54.733Z,20.00
2018-12-15T06:06:54.723Z,20.70
2018-12-15T06:07:54.714Z,21.40
2018-12-15T06:08:54.754Z,20.00
2018-12-15T06:09:54.706Z,21.80
2018-12-15T06:10:54.705Z,22.30
2018-12-15T06:11:55.306Z,20.60
2018-12-15T06:12:54.664Z,19.80
2018-12-15T06:13:54.689Z,21.40
2018-12-15T06:14:54.643Z,19.90
2018-12-15T06:15:54.638Z,19.10
2018-12-15T06:16:54.617Z,22.00
2018-12-15T06:17:54.628Z,18.60
2018-12-15T06:18:54.614Z,22.00
2018-12-15T06:19:54.582Z,20.60
2018-12-15T06:20:54.598Z,18.30
2018-12-15T06:21:54.576Z,20.80
2018-12-15T06:22:54.564Z,19.50
2018-12-15T06:23:54.536Z,20.80
2018-12-15T06:24:54.570Z,21.90
2018-12-15T06:25:54.539Z,22.70
2018-12-15T06:26:54.508Z,21.90
2018-12-15T06:27:54.527Z,24.40
2018-12-15T06:28:54.481Z,20.80
2018-12-15T06:29:54.472Z,21.40
2018-12-15T06:30:54.485Z,23.20
2018-12-15T06:31:54.482Z,23.00
2018-12-15T06:32:54.442Z,19.50
2018-12-15T06:33:54.453Z,21.20
2018-12-15T06:34:54.418Z,19.70
2018-12-15T06:35:54.403Z,21.00
2018-12-15T06:36:54.401Z,18.80
2018-12-15T06:37:54.385Z,19.80
2018-12-15T06:38:54.433Z,20.60
2018-12-15T06:39:54.401Z,19.40
2018-12-15T06:40:54.357Z,20.90
2018-12-15T06:41:54.355Z,21.30
2018-12-15T06:42:54.324Z,19.70
2018-12-15T06:43:54.356Z,22.10
2018-12-15T06:44:54.315Z,20.60
2018-12-15T06:45:54.351Z,21.60
2018-12-15T06:46:54.289Z,20.60
2018-12-15T06:47:54.280Z,19.70
2018-12-15T06:48:54.283Z,20.10
2018-12-15T06:49:54.260Z,21.30
2018-12-15T06:50:54.260Z,22.00
2018-12-15T06:51:54.230Z,20.20
2018-12-15T06:52:54.271Z,20.80
2018-12-15T06:53:54.230Z,22.10
2018-12-15T06:54:54.197Z,20.40
2018-12-15T06:55:54.209Z,21.60
2018-12-15T06:56:54.222Z,20.60
2018-12-15T06:57:54.160Z,19.50
2018-12-15T06:58:54.158Z,22.30
2018-12-15T06:59:54.137Z,21.30
2018-12-15T07:00:54.131Z,20.70
2018-12-15T07:01:54.141Z,21.60
2018-12-15T07:02:54.106Z,25.00
2018-12-15T07:03:54.112Z,20.20
2018-12-15T07:04:54.087Z,19.60
2018-12-15T07:05:54.087Z,20.50
2018-12-15T07:06:54.092Z,22.90
2018-12-15T07:07:54.052Z,21.70
2018-12-15T07:08:54.044Z,20.50
2018-12-15T07:09:54.027Z,20.90
2018-12-15T07:10:54.346Z,21.60
2018-12-15T07:11:54.007Z,19.60
2018-12-15T07:12:54.033Z,21.50
2018-12-15T07:13:54.014Z,19.80
2018-12-15T07:14:54.011Z,22.00
2018-12-15T07:15:53.988Z,20.50
2018-12-15T07:16:54.090Z,22.00
2018-12-15T07:17:53.947Z,21.60
2018-12-15T07:18:53.935Z,20.40
2018-12-15T07:19:54.336Z,22.60
2018-12-15T07:20:53.935Z,26.00
2018-12-15T07:21:53.898Z,26.30
2018-12-15T07:22:54.068Z,30.10
2018-12-15T07:23:53.933Z,28.20
2018-12-15T07:24:53.868Z,32.00
2018-12-15T07:25:53.912Z,32.10
2018-12-15T07:26:53.843Z,31.80
2018-12-15T07:27:53.831Z,31.70
2018-12-15T07:28:53.839Z,32.50
2018-12-15T07:29:53.822Z,32.20
2018-12-15T07:30:53.833Z,31.50
2018-12-15T07:31:53.788Z,30.10
2018-12-15T07:32:53.777Z,31.40
2018-12-15T07:34:00.812Z,33.50
2018-12-15T07:34:53.757Z,32.80
2018-12-15T07:35:53.764Z,34.70
2018-12-15T07:36:53.749Z,29.60
2018-12-15T07:37:53.727Z,33.00
2018-12-15T07:38:53.715Z,36.00
2018-12-15T07:39:53.748Z,33.60
2018-12-15T07:40:53.700Z,36.70
2018-12-15T07:41:53.683Z,30.80
2018-12-15T07:42:53.687Z,36.80
2018-12-15T07:43:53.696Z,36.30
2018-12-15T07:44:53.752Z,37.60
2018-12-15T07:45:53.704Z,38.90
2018-12-15T07:46:53.651Z,34.60
2018-12-15T07:47:53.616Z,41.30
2018-12-15T07:48:53.625Z,41.30
2018-12-15T07:49:53.633Z,41.70
2018-12-15T07:50:53.620Z,41.50
2018-12-15T07:51:53.597Z,40.70
2018-12-15T07:52:53.578Z,41.40
2018-12-15T07:53:53.595Z,41.50
2018-12-15T07:54:53.545Z,42.60
2018-12-15T07:55:53.558Z,41.70
2018-12-15T07:56:53.524Z,40.10
2018-12-15T07:57:53.538Z,40.30
2018-12-15T07:58:53.524Z,40.80
2018-12-15T07:59:53.505Z,41.60
2018-12-15T08:00:53.490Z,40.70
2018-12-15T08:01:53.531Z,42.10
2018-12-15T08:02:53.482Z,45.80
2018-12-15T08:03:53.488Z,41.00
2018-12-15T08:04:53.434Z,44.80
2018-12-15T08:05:53.426Z,44.60
2018-12-15T08:06:53.432Z,45.00
2018-12-15T08:07:53.428Z,39.90
2018-12-15T08:08:53.423Z,42.80
2018-12-15T08:09:53.377Z,44.90
2018-12-15T08:10:53.398Z,45.20
2018-12-15T08:11:53.367Z,43.90
2018-12-15T08:12:53.357Z,45.10
2018-12-15T08:13:53.336Z,46.10
2018-12-15T08:14:53.337Z,45.60
2018-12-15T08:15:53.353Z,48.00
2018-12-15T08:16:53.341Z,48.80
2018-12-15T08:17:53.312Z,48.20
2018-12-15T08:18:58.078Z,46.90
2018-12-15T08:19:53.280Z,49.50
2018-12-15T08:20:53.270Z,48.10
2018-12-15T08:21:53.247Z,48.20
2018-12-15T08:22:53.274Z,47.30
2018-12-15T08:23:53.232Z,49.20
2018-12-15T08:24:53.218Z,45.00
2018-12-15T08:25:53.215Z,47.80
2018-12-15T08:26:53.194Z,47.20
2018-12-15T08:27:53.222Z,46.80
2018-12-15T08:28:53.168Z,45.90
2018-12-15T08:29:53.183Z,46.40
2018-12-15T08:30:53.230Z,49.50
2018-12-15T08:31:53.141Z,45.00
2018-12-15T08:32:53.198Z,49.30
2018-12-15T08:33:53.137Z,45.50
2018-12-15T08:34:53.113Z,49.00
2018-12-15T08:35:53.132Z,44.60
2018-12-15T08:36:53.174Z,43.80
2018-12-15T08:37:53.085Z,46.60
2018-12-15T08:38:53.073Z,45.70
2018-12-15T08:39:53.057Z,44.20
2018-12-15T08:40:53.047Z,45.70
2018-12-15T08:41:53.092Z,45.20
2018-12-15T08:42:53.048Z,45.00
2018-12-15T08:43:53.034Z,45.30
2018-12-15T08:44:53.074Z,43.50
2018-12-15T08:45:53.018Z,44.60
2018-12-15T08:46:52.996Z,45.30
2018-12-15T08:47:52.976Z,38.90
2018-12-15T08:48:52.985Z,37.50
2018-12-15T08:49:52.999Z,39.90
2018-12-15T08:50:52.967Z,39.60
2018-12-15T08:51:52.933Z,38.70
2018-12-15T08:52:52.929Z,39.20
2018-12-15T08:53:52.927Z,40.20
2018-12-15T08:54:52.903Z,38.70
2018-12-15T08:55:52.895Z,40.10
2018-12-15T08:56:52.875Z,38.00
2018-12-15T08:57:52.853Z,40.60
2018-12-15T08:58:52.878Z,36.80
2018-12-15T08:59:52.839Z,38.90
2018-12-15T09:00:52.834Z,41.50
2018-12-15T09:01:52.831Z,38.60
2018-12-15T09:02:52.845Z,36.90
2018-12-15T09:03:52.816Z,35.80
2018-12-15T09:04:52.788Z,41.20
2018-12-15T09:05:52.830Z,40.40
2018-12-15T09:06:52.755Z,35.80
2018-12-15T09:07:52.867Z,39.10
2018-12-15T09:08:52.737Z,36.60
2018-12-15T09:09:52.723Z,38.50
2018-12-15T09:10:52.729Z,38.40
2018-12-15T09:11:52.700Z,36.10
2018-12-15T09:12:52.725Z,37.30
2018-12-15T09:13:52.693Z,36.20
2018-12-15T09:14:52.728Z,37.70
2018-12-15T09:15:52.657Z,36.60
2018-12-15T09:16:52.650Z,35.90
2018-12-15T09:17:52.676Z,35.20
2018-12-15T09:18:52.623Z,35.90
2018-12-15T09:19:52.634Z,37.20
2018-12-15T09:20:52.637Z,39.40
2018-12-15T09:21:52.600Z,39.70
2018-12-15T09:22:52.596Z,35.30
2018-12-15T09:23:52.611Z,37.20
2018-12-15T09:24:52.584Z,38.50
2018-12-15T09:25:52.615Z,36.10
2018-12-15T09:26:52.535Z,36.60
2018-12-15T09:27:52.532Z,35.30
2018-12-15T09:28:52.534Z,35.50
2018-12-15T09:29:52.502Z,35.80
2018-12-15T09:30:52.515Z,35.50
2018-12-15T09:31:52.526Z,33.80
2018-12-15T09:32:52.500Z,35.90
2018-12-15T09:33:52.458Z,36.40
2018-12-15T09:34:52.475Z,34.90
2018-12-15T09:35:52.476Z,35.20
2018-12-15T09:36:52.425Z,33.20
2018-12-15T09:37:52.433Z,34.90
2018-12-15T09:38:52.406Z,34.70
2018-12-15T09:39:52.432Z,36.10
2018-12-15T09:40:52.390Z,33.30
2018-12-15T09:41:52.384Z,32.90
2018-12-15T09:42:52.394Z,33.00
2018-12-15T09:43:52.352Z,32.80
2018-12-15T09:44:52.341Z,32.40
2018-12-15T09:45:52.374Z,32.90
2018-12-15T09:46:52.316Z,33.60
2018-12-15T09:47:52.314Z,31.90
2018-12-15T09:48:52.308Z,33.90
2018-12-15T09:49:52.291Z,33.70
2018-12-15T09:50:52.290Z,32.20
2018-12-15T09:51:52.287Z,30.90
2018-12-15T09:52:52.280Z,33.40
2018-12-15T09:53:52.242Z,34.40
2018-12-15T09:54:52.249Z,32.00
2018-12-15T09:55:52.224Z,32.50
2018-12-15T09:56:52.256Z,33.10
2018-12-15T09:57:52.211Z,31.90
2018-12-15T09:58:52.194Z,33.50
2018-12-15T09:59:52.177Z,33.40
2018-12-15T10:00:52.178Z,33.30
2018-12-15T10:01:52.183Z,32.50
2018-12-15T10:02:52.146Z,34.30
2018-12-15T10:03:52.134Z,33.00
2018-12-15T10:04:52.121Z,32.50
2018-12-15T10:05:52.111Z,33.70
2018-12-15T10:06:52.141Z,35.70
2018-12-15T10:07:52.122Z,30.70
2018-12-15T10:08:52.085Z,34.40
2018-12-15T10:09:52.093Z,26.60
2018-12-15T10:10:52.060Z,30.30
2018-12-15T10:11:52.066Z,29.50
2018-12-15T10:12:52.031Z,32.10
2018-12-15T10:13:52.044Z,32.70
2018-12-15T10:14:52.021Z,26.70
2018-12-15T10:15:52.011Z,27.40
2018-12-15T10:16:52.024Z,30.10
2018-12-15T10:17:51.993Z,27.70
2018-12-15T10:18:51.971Z,23.90
2018-12-15T10:19:51.972Z,25.40
2018-12-15T10:20:51.958Z,26.70
2018-12-15T10:21:51.970Z,26.30
2018-12-15T10:22:51.940Z,24.80
2018-12-15T10:23:51.910Z,26.30
2018-12-15T10:24:51.903Z,24.90
2018-12-15T10:25:51.916Z,27.00
2018-12-15T10:26:51.913Z,22.90
2018-12-15T10:27:51.874Z,25.20
2018-12-15T10:28:51.860Z,23.30
2018-12-15T10:29:51.867Z,23.00
2018-12-15T10:30:51.835Z,25.80
2018-12-15T10:31:52.387Z,24.90
2018-12-15T10:32:51.821Z,25.10
2018-12-15T10:33:51.843Z,26.00
2018-12-15T10:34:51.832Z,27.50
2018-12-15T10:35:51.799Z,26.10
2018-12-15T10:36:51.799Z,26.40
2018-12-15T10:37:51.764Z,29.00
2018-12-15T10:38:51.759Z,25.00
2018-12-15T10:39:51.771Z,27.80
2018-12-15T10:40:51.727Z,28.30
2018-12-15T10:41:51.750Z,28.20
2018-12-15T10:42:51.716Z,26.80
2018-12-15T10:43:51.757Z,27.30
2018-12-15T10:44:51.698Z,29.50
2018-12-15T10:45:51.680Z,27.70
2018-12-15T10:46:51.691Z,26.10
2018-12-15T10:47:51.655Z,26.90
2018-12-15T10:48:51.645Z,25.00
2018-12-15T10:49:51.656Z,25.70
2018-12-15T10:50:51.618Z,27.40
2018-12-15T10:51:51.648Z,24.60
2018-12-15T10:52:51.609Z,25.10
2018-12-15T10:53:51.730Z,26.20
2018-12-15T10:54:51.577Z,25.70
2018-12-15T10:55:51.568Z,28.00
2018-12-15T10:56:51.559Z,26.20
2018-12-15T10:57:51.580Z,26.00
2018-12-15T10:58:51.546Z,25.00
2018-12-15T10:59:51.521Z,24.80
2018-12-15T11:00:51.517Z,24.00
2018-12-15T11:01:51.503Z,26.80
2018-12-15T11:02:51.532Z,24.20
2018-12-15T11:03:51.498Z,23.50
2018-12-15T11:04:51.475Z,24.60
2018-12-15T11:05:51.459Z,26.00
2018-12-15T11:06:51.444Z,24.40
2018-12-15T11:07:51.435Z,25.50
2018-12-15T11:08:51.451Z,23.20
2018-12-15T11:09:51.446Z,25.50
2018-12-15T11:10:51.453Z,25.30
2018-12-15T11:11:51.390Z,26.20
2018-12-15T11:12:51.377Z,27.40
2018-12-15T11:13:51.389Z,25.30
2018-12-15T11:14:51.374Z,26.10
2018-12-15T11:15:51.360Z,23.30
2018-12-15T11:16:51.355Z,26.50
2018-12-15T11:17:51.365Z,21.20
2018-12-15T11:18:51.320Z,21.10
2018-12-15T11:19:51.321Z,22.40
2018-12-15T11:20:51.304Z,23.20
2018-12-15T11:21:51.350Z,23.20
2018-12-15T11:22:51.285Z,22.50
2018-12-15T11:23:51.310Z,21.90
2018-12-15T11:24:51.245Z,20.90
2018-12-15T11:25:51.301Z,18.60
2018-12-15T11:26:51.231Z,20.20
2018-12-15T11:27:51.228Z,21.90
2018-12-15T11:28:51.217Z,22.10
2018-12-15T11:29:51.192Z,22.10
2018-12-15T11:30:51.210Z,22.70
2018-12-15T11:31:51.172Z,19.90
2018-12-15T11:32:51.159Z,23.20
2018-12-15T11:33:51.153Z,22.90
2018-12-15T11:34:51.136Z,20.70
2018-12-15T11:35:51.148Z,21.70
2018-12-15T11:36:51.115Z,23.30
2018-12-15T11:37:51.105Z,19.80
2018-12-15T11:38:51.098Z,19.60
2018-12-15T11:39:51.085Z,19.70
2018-12-15T11:40:51.102Z,20.40
2018-12-15T11:41:51.066Z,22.00
2018-12-15T11:42:51.056Z,22.00
2018-12-15T11:43:51.049Z,22.40
2018-12-15T11:44:51.028Z,19.60
2018-12-15T11:45:51.042Z,20.70
2018-12-15T11:46:51.008Z,21.10
2018-12-15T11:47:50.999Z,21.00
2018-12-15T11:48:51.057Z,20.30
2018-12-15T11:49:50.974Z,23.30
2018-12-15T11:50:50.969Z,20.00
2018-12-15T11:51:50.965Z,20.80
2018-12-15T11:52:50.973Z,20.50
2018-12-15T11:53:50.931Z,22.10
2018-12-15T11:54:50.917Z,21.20
2018-12-15T11:55:50.930Z,17.80
2018-12-15T11:56:50.900Z,21.50
2018-12-15T11:57:50.909Z,21.40
2018-12-15T11:58:50.888Z,20.40
2018-12-15T11:59:50.867Z,17.90
2018-12-15T12:00:50.877Z,18.90
2018-12-15T12:01:50.845Z,20.30
2018-12-15T12:02:50.875Z,19.90
2018-12-15T12:03:50.848Z,19.40
2018-12-15T12:04:50.810Z,19.00
2018-12-15T12:05:50.802Z,19.30
2018-12-15T12:06:50.855Z,20.70
2018-12-15T12:07:50.799Z,19.10
2018-12-15T12:08:50.772Z,20.60
2018-12-15T12:09:50.774Z,19.10
2018-12-15T12:10:50.744Z,23.10
2018-12-15T12:11:50.763Z,20.00
2018-12-15T12:12:50.728Z,21.40
2018-12-15T12:13:50.710Z,19.00
2018-12-15T12:14:50.709Z,20.10
2018-12-15T12:15:50.718Z,21.40
2018-12-15T12:16:50.681Z,22.30
2018-12-15T12:17:50.670Z,19.50
2018-12-15T12:18:50.658Z,21.40
2018-12-15T12:19:50.676Z,22.60
2018-12-15T12:20:50.644Z,20.90
2018-12-15T12:21:50.656Z,20.10
2018-12-15T12:22:50.615Z,21.70
2018-12-15T12:23:50.603Z,23.50
2018-12-15T12:24:50.606Z,21.70
2018-12-15T12:25:50.593Z,23.70
2018-12-15T12:26:50.623Z,21.40
2018-12-15T12:27:50.850Z,21.90
2018-12-15T12:28:50.549Z,19.40
2018-12-15T12:29:50.540Z,19.10
2018-12-15T12:30:50.549Z,17.20
2018-12-15T12:31:50.552Z,17.80
2018-12-15T12:32:50.523Z,19.90
2018-12-15T12:33:50.533Z,19.90
2018-12-15T12:34:50.484Z,21.20
2018-12-15T12:35:50.472Z,20.50
2018-12-15T12:36:50.548Z,21.50
2018-12-15T12:37:50.473Z,19.30
2018-12-15T12:38:50.455Z,20.30
2018-12-15T12:39:50.460Z,19.10
2018-12-15T12:40:50.431Z,22.60
2018-12-15T12:41:50.432Z,21.20
2018-12-15T12:42:50.403Z,20.70
2018-12-15T12:43:50.400Z,20.40
2018-12-15T12:44:50.412Z,22.40
2018-12-15T12:45:50.367Z,23.20
2018-12-15T12:46:50.387Z,21.40
2018-12-15T12:47:50.343Z,21.30
2018-12-15T12:48:50.332Z,22.40
2018-12-15T12:49:56.669Z,22.20
2018-12-15T12:50:51.307Z,22.70
2018-12-15T12:51:50.343Z,21.80
2018-12-15T12:52:50.284Z,19.60